sensor_id;sensor_type;location;lat;lon;timestamp;P1;durP1;ratioP1;P2;durP2;ratioP2
56419;SDS011;42323;52.170;7.538;2023-04-24T00:01:03;4.10;;;3.17;;
56419;SDS011;42323;52.170;7.538;2023-04-24T00:03:29;3.67;;;3.10;;
56419;SDS011;42323;52.170;7.538;2023-04-24T00:05:56;5.15;;;2.95;;
56419;SDS011;42323;52.170;7.538;2023-04-24T00:08:25;3.78;;;2.80;;
56419;SDS011;42323;52.170;7.538;2023-04-24T00:10:51;3.50;;;2.67;;
56419;SDS011;42323;52.170;7.538;2023-04-24T00:13:18;4.57;;;2.83;;
56419;SDS011;42323;52.170;7.538;2023-04-24T00:15:45;3.25;;;2.60;;
56419;SDS011;42323;52.170;7.538;2023-04-24T00:18:12;5.25;;;2.80;;
56419;SDS011;42323;52.170;7.538;2023-04-24T00:20:39;3.75;;;2.75;;
56419;SDS011;42323;52.170;7.538;2023-04-24T00:23:05;3.95;;;2.63;;
56419;SDS011;42323;52.170;7.538;2023-04-24T00:25:32;4.70;;;3.40;;
56419;SDS011;42323;52.170;7.538;2023-04-24T00:27:59;4.32;;;3.20;;
56419;SDS011;42323;52.170;7.538;2023-04-24T00:30:26;6.68;;;3.42;;
56419;SDS011;42323;52.170;7.538;2023-04-24T00:32:52;4.82;;;3.28;;
56419;SDS011;42323;52.170;7.538;2023-04-24T00:35:19;4.28;;;3.28;;
56419;SDS011;42323;52.170;7.538;2023-04-24T00:37:46;4.78;;;3.58;;
56419;SDS011;42323;52.170;7.538;2023-04-24T00:40:12;5.28;;;3.67;;
56419;SDS011;42323;52.170;7.538;2023-04-24T00:42:39;6.53;;;4.10;;
56419;SDS011;42323;52.170;7.538;2023-04-24T00:45:07;4.65;;;3.80;;
56419;SDS011;42323;52.170;7.538;2023-04-24T00:47:34;5.25;;;3.75;;
56419;SDS011;42323;52.170;7.538;2023-04-24T00:50:04;5.13;;;3.92;;
56419;SDS011;42323;52.170;7.538;2023-04-24T00:52:31;5.10;;;3.67;;
56419;SDS011;42323;52.170;7.538;2023-04-24T00:54:58;6.03;;;4.10;;
56419;SDS011;42323;52.170;7.538;2023-04-24T00:57:25;6.07;;;4.28;;
56419;SDS011;42323;52.170;7.538;2023-04-24T00:59:52;8.02;;;4.18;;
56419;SDS011;42323;52.170;7.538;2023-04-24T01:02:19;5.47;;;4.10;;
56419;SDS011;42323;52.170;7.538;2023-04-24T01:04:49;7.28;;;4.03;;
56419;SDS011;42323;52.170;7.538;2023-04-24T01:07:20;5.53;;;3.55;;
56419;SDS011;42323;52.170;7.538;2023-04-24T01:09:47;6.35;;;4.20;;
56419;SDS011;42323;52.170;7.538;2023-04-24T01:12:17;6.72;;;4.10;;
56419;SDS011;42323;52.170;7.538;2023-04-24T01:14:44;7.10;;;4.28;;
56419;SDS011;42323;52.170;7.538;2023-04-24T01:17:11;7.07;;;3.78;;
56419;SDS011;42323;52.170;7.538;2023-04-24T01:19:38;4.82;;;3.63;;
56419;SDS011;42323;52.170;7.538;2023-04-24T01:22:11;5.13;;;3.58;;
56419;SDS011;42323;52.170;7.538;2023-04-24T01:24:39;5.07;;;3.45;;
56419;SDS011;42323;52.170;7.538;2023-04-24T01:27:06;5.25;;;3.40;;
56419;SDS011;42323;52.170;7.538;2023-04-24T01:29:34;4.85;;;3.60;;
56419;SDS011;42323;52.170;7.538;2023-04-24T01:32:02;5.68;;;3.47;;
56419;SDS011;42323;52.170;7.538;2023-04-24T01:34:30;5.60;;;4.28;;
56419;SDS011;42323;52.170;7.538;2023-04-24T01:36:57;6.03;;;4.20;;
56419;SDS011;42323;52.170;7.538;2023-04-24T01:39:23;5.25;;;4.10;;
56419;SDS011;42323;52.170;7.538;2023-04-24T01:41:52;6.10;;;3.72;;
56419;SDS011;42323;52.170;7.538;2023-04-24T01:44:19;6.80;;;4.35;;
56419;SDS011;42323;52.170;7.538;2023-04-24T01:46:46;5.50;;;4.22;;
56419;SDS011;42323;52.170;7.538;2023-04-24T01:49:13;6.05;;;4.07;;
56419;SDS011;42323;52.170;7.538;2023-04-24T01:51:39;6.13;;;4.03;;
56419;SDS011;42323;52.170;7.538;2023-04-24T01:54:06;6.30;;;3.80;;
56419;SDS011;42323;52.170;7.538;2023-04-24T01:56:33;5.97;;;3.97;;
56419;SDS011;42323;52.170;7.538;2023-04-24T01:59:03;5.88;;;4.72;;
56419;SDS011;42323;52.170;7.538;2023-04-24T02:01:36;5.72;;;4.07;;
56419;SDS011;42323;52.170;7.538;2023-04-24T02:04:04;6.53;;;4.05;;
56419;SDS011;42323;52.170;7.538;2023-04-24T02:06:32;6.13;;;3.78;;
56419;SDS011;42323;52.170;7.538;2023-04-24T02:08:59;5.75;;;3.88;;
56419;SDS011;42323;52.170;7.538;2023-04-24T02:11:26;6.25;;;4.20;;
56419;SDS011;42323;52.170;7.538;2023-04-24T02:13:52;5.70;;;3.88;;
56419;SDS011;42323;52.170;7.538;2023-04-24T02:16:19;5.38;;;3.70;;
56419;SDS011;42323;52.170;7.538;2023-04-24T02:18:46;5.35;;;3.40;;
56419;SDS011;42323;52.170;7.538;2023-04-24T02:21:12;6.35;;;3.63;;
56419;SDS011;42323;52.170;7.538;2023-04-24T02:23:39;5.18;;;3.58;;
56419;SDS011;42323;52.170;7.538;2023-04-24T02:26:05;4.25;;;3.15;;
56419;SDS011;42323;52.170;7.538;2023-04-24T02:28:32;8.07;;;4.00;;
56419;SDS011;42323;52.170;7.538;2023-04-24T02:30:59;4.82;;;3.42;;
56419;SDS011;42323;52.170;7.538;2023-04-24T02:33:26;4.68;;;3.25;;
56419;SDS011;42323;52.170;7.538;2023-04-24T02:35:52;4.82;;;3.15;;
56419;SDS011;42323;52.170;7.538;2023-04-24T02:38:19;4.07;;;3.00;;
56419;SDS011;42323;52.170;7.538;2023-04-24T02:40:45;7.47;;;2.83;;
56419;SDS011;42323;52.170;7.538;2023-04-24T02:43:12;5.63;;;3.25;;
56419;SDS011;42323;52.170;7.538;2023-04-24T02:45:38;7.10;;;3.47;;
56419;SDS011;42323;52.170;7.538;2023-04-24T02:48:05;3.95;;;2.95;;
56419;SDS011;42323;52.170;7.538;2023-04-24T02:50:31;4.03;;;3.20;;
56419;SDS011;42323;52.170;7.538;2023-04-24T02:52:59;4.60;;;3.17;;
56419;SDS011;42323;52.170;7.538;2023-04-24T02:55:26;4.72;;;2.58;;
56419;SDS011;42323;52.170;7.538;2023-04-24T02:57:52;5.93;;;2.90;;
56419;SDS011;42323;52.170;7.538;2023-04-24T03:00:19;7.05;;;2.97;;
56419;SDS011;42323;52.170;7.538;2023-04-24T03:02:46;5.85;;;3.05;;
56419;SDS011;42323;52.170;7.538;2023-04-24T03:05:13;5.68;;;3.80;;
56419;SDS011;42323;52.170;7.538;2023-04-24T03:07:39;5.25;;;3.35;;
56419;SDS011;42323;52.170;7.538;2023-04-24T03:10:06;10.32;;;3.53;;
56419;SDS011;42323;52.170;7.538;2023-04-24T03:12:33;5.80;;;3.58;;
56419;SDS011;42323;52.170;7.538;2023-04-24T03:15:00;6.88;;;3.75;;
56419;SDS011;42323;52.170;7.538;2023-04-24T03:17:27;5.78;;;3.85;;
56419;SDS011;42323;52.170;7.538;2023-04-24T03:19:53;10.00;;;3.95;;
56419;SDS011;42323;52.170;7.538;2023-04-24T03:22:19;6.63;;;4.45;;
56419;SDS011;42323;52.170;7.538;2023-04-24T03:24:46;7.15;;;4.38;;
56419;SDS011;42323;52.170;7.538;2023-04-24T03:27:13;5.95;;;3.60;;
56419;SDS011;42323;52.170;7.538;2023-04-24T03:29:39;8.30;;;4.47;;
56419;SDS011;42323;52.170;7.538;2023-04-24T03:32:06;8.35;;;4.18;;
56419;SDS011;42323;52.170;7.538;2023-04-24T03:34:32;6.82;;;4.25;;
56419;SDS011;42323;52.170;7.538;2023-04-24T03:36:59;7.55;;;4.82;;
56419;SDS011;42323;52.170;7.538;2023-04-24T03:39:25;7.35;;;4.40;;
56419;SDS011;42323;52.170;7.538;2023-04-24T03:41:52;8.77;;;4.95;;
56419;SDS011;42323;52.170;7.538;2023-04-24T03:44:18;7.13;;;4.57;;
56419;SDS011;42323;52.170;7.538;2023-04-24T03:46:45;9.00;;;4.80;;
56419;SDS011;42323;52.170;7.538;2023-04-24T03:49:11;12.43;;;5.18;;
56419;SDS011;42323;52.170;7.538;2023-04-24T03:51:38;9.10;;;5.70;;
56419;SDS011;42323;52.170;7.538;2023-04-24T03:54:04;11.02;;;5.82;;
56419;SDS011;42323;52.170;7.538;2023-04-24T03:56:31;8.13;;;5.43;;
56419;SDS011;42323;52.170;7.538;2023-04-24T03:58:57;11.77;;;5.40;;
56419;SDS011;42323;52.170;7.538;2023-04-24T04:01:24;10.85;;;6.15;;
56419;SDS011;42323;52.170;7.538;2023-04-24T04:03:50;12.13;;;6.22;;
56419;SDS011;42323;52.170;7.538;2023-04-24T04:06:17;12.30;;;6.38;;
56419;SDS011;42323;52.170;7.538;2023-04-24T04:08:45;10.55;;;6.45;;
56419;SDS011;42323;52.170;7.538;2023-04-24T04:11:12;11.93;;;6.50;;
56419;SDS011;42323;52.170;7.538;2023-04-24T04:13:38;15.38;;;8.35;;
56419;SDS011;42323;52.170;7.538;2023-04-24T04:16:05;15.88;;;7.82;;
56419;SDS011;42323;52.170;7.538;2023-04-24T04:18:32;13.65;;;7.78;;
56419;SDS011;42323;52.170;7.538;2023-04-24T04:20:59;14.15;;;8.02;;
56419;SDS011;42323;52.170;7.538;2023-04-24T04:23:27;15.73;;;9.32;;
56419;SDS011;42323;52.170;7.538;2023-04-24T04:25:54;17.85;;;9.45;;
56419;SDS011;42323;52.170;7.538;2023-04-24T04:28:21;12.95;;;7.78;;
56419;SDS011;42323;52.170;7.538;2023-04-24T04:30:47;15.77;;;8.45;;
56419;SDS011;42323;52.170;7.538;2023-04-24T04:33:14;13.68;;;8.32;;
56419;SDS011;42323;52.170;7.538;2023-04-24T04:35:41;17.55;;;8.52;;
56419;SDS011;42323;52.170;7.538;2023-04-24T04:38:07;14.40;;;7.28;;
56419;SDS011;42323;52.170;7.538;2023-04-24T04:40:34;16.73;;;8.20;;
56419;SDS011;42323;52.170;7.538;2023-04-24T04:43:01;15.13;;;7.72;;
56419;SDS011;42323;52.170;7.538;2023-04-24T04:45:27;15.68;;;8.18;;
56419;SDS011;42323;52.170;7.538;2023-04-24T04:47:54;12.73;;;8.05;;
56419;SDS011;42323;52.170;7.538;2023-04-24T04:50:21;13.15;;;7.18;;
56419;SDS011;42323;52.170;7.538;2023-04-24T04:52:49;12.73;;;7.47;;
56419;SDS011;42323;52.170;7.538;2023-04-24T04:55:15;13.15;;;7.07;;
56419;SDS011;42323;52.170;7.538;2023-04-24T04:57:42;13.15;;;7.38;;
56419;SDS011;42323;52.170;7.538;2023-04-24T05:00:08;10.10;;;6.25;;
56419;SDS011;42323;52.170;7.538;2023-04-24T05:02:36;11.82;;;6.85;;
56419;SDS011;42323;52.170;7.538;2023-04-24T05:05:06;12.82;;;6.53;;
56419;SDS011;42323;52.170;7.538;2023-04-24T05:07:34;13.75;;;7.53;;
56419;SDS011;42323;52.170;7.538;2023-04-24T05:10:01;12.98;;;6.70;;
56419;SDS011;42323;52.170;7.538;2023-04-24T05:12:27;12.35;;;7.28;;
56419;SDS011;42323;52.170;7.538;2023-04-24T05:14:54;14.82;;;7.40;;
56419;SDS011;42323;52.170;7.538;2023-04-24T05:17:21;13.88;;;8.73;;
56419;SDS011;42323;52.170;7.538;2023-04-24T05:19:48;15.13;;;7.55;;
56419;SDS011;42323;52.170;7.538;2023-04-24T05:22:14;15.50;;;7.18;;
56419;SDS011;42323;52.170;7.538;2023-04-24T05:24:41;14.43;;;8.05;;
56419;SDS011;42323;52.170;7.538;2023-04-24T05:27:07;16.58;;;9.02;;
56419;SDS011;42323;52.170;7.538;2023-04-24T05:29:34;16.73;;;8.80;;
56419;SDS011;42323;52.170;7.538;2023-04-24T05:32:01;15.52;;;8.02;;
56419;SDS011;42323;52.170;7.538;2023-04-24T05:34:28;18.08;;;9.18;;
56419;SDS011;42323;52.170;7.538;2023-04-24T05:36:54;13.65;;;8.60;;
56419;SDS011;42323;52.170;7.538;2023-04-24T05:39:27;17.17;;;9.45;;
56419;SDS011;42323;52.170;7.538;2023-04-24T05:41:54;16.88;;;8.52;;
56419;SDS011;42323;52.170;7.538;2023-04-24T05:44:27;16.05;;;9.65;;
56419;SDS011;42323;52.170;7.538;2023-04-24T05:46:53;16.67;;;9.07;;
56419;SDS011;42323;52.170;7.538;2023-04-24T05:49:22;20.45;;;10.32;;
56419;SDS011;42323;52.170;7.538;2023-04-24T05:51:49;17.73;;;10.30;;
56419;SDS011;42323;52.170;7.538;2023-04-24T05:54:15;17.65;;;9.07;;
56419;SDS011;42323;52.170;7.538;2023-04-24T05:56:42;19.40;;;9.73;;
56419;SDS011;42323;52.170;7.538;2023-04-24T05:59:08;17.40;;;8.77;;
56419;SDS011;42323;52.170;7.538;2023-04-24T06:01:35;13.60;;;8.98;;
56419;SDS011;42323;52.170;7.538;2023-04-24T06:04:02;17.55;;;9.50;;
56419;SDS011;42323;52.170;7.538;2023-04-24T06:06:32;13.95;;;8.35;;
56419;SDS011;42323;52.170;7.538;2023-04-24T06:08:59;15.55;;;8.35;;
56419;SDS011;42323;52.170;7.538;2023-04-24T06:11:29;14.60;;;8.77;;
56419;SDS011;42323;52.170;7.538;2023-04-24T06:13:56;14.82;;;8.32;;
56419;SDS011;42323;52.170;7.538;2023-04-24T06:16:22;17.10;;;8.50;;
56419;SDS011;42323;52.170;7.538;2023-04-24T06:19:06;12.70;;;7.18;;
56419;SDS011;42323;52.170;7.538;2023-04-24T06:21:41;13.40;;;7.85;;
56419;SDS011;42323;52.170;7.538;2023-04-24T06:24:27;12.57;;;7.80;;
56419;SDS011;42323;52.170;7.538;2023-04-24T06:27:03;12.18;;;7.05;;
56419;SDS011;42323;52.170;7.538;2023-04-24T06:29:30;13.70;;;7.50;;
56419;SDS011;42323;52.170;7.538;2023-04-24T06:31:56;14.73;;;7.40;;
56419;SDS011;42323;52.170;7.538;2023-04-24T06:34:24;13.68;;;7.10;;
56419;SDS011;42323;52.170;7.538;2023-04-24T06:36:51;13.20;;;7.78;;
56419;SDS011;42323;52.170;7.538;2023-04-24T06:39:18;10.57;;;7.90;;
56419;SDS011;42323;52.170;7.538;2023-04-24T06:41:47;15.00;;;8.05;;
56419;SDS011;42323;52.170;7.538;2023-04-24T06:44:24;15.05;;;8.13;;
56419;SDS011;42323;52.170;7.538;2023-04-24T06:46:51;12.57;;;7.50;;
56419;SDS011;42323;52.170;7.538;2023-04-24T06:49:20;11.27;;;7.03;;
56419;SDS011;42323;52.170;7.538;2023-04-24T06:51:47;14.40;;;7.85;;
56419;SDS011;42323;52.170;7.538;2023-04-24T06:54:22;10.18;;;7.47;;
56419;SDS011;42323;52.170;7.538;2023-04-24T06:56:51;11.20;;;7.28;;
56419;SDS011;42323;52.170;7.538;2023-04-24T06:59:21;12.23;;;7.78;;
56419;SDS011;42323;52.170;7.538;2023-04-24T07:01:54;11.32;;;7.47;;
56419;SDS011;42323;52.170;7.538;2023-04-24T07:04:21;12.25;;;7.80;;
56419;SDS011;42323;52.170;7.538;2023-04-24T07:06:48;12.18;;;7.38;;
56419;SDS011;42323;52.170;7.538;2023-04-24T07:09:17;12.55;;;7.55;;
56419;SDS011;42323;52.170;7.538;2023-04-24T07:11:45;10.27;;;6.97;;
56419;SDS011;42323;52.170;7.538;2023-04-24T07:14:12;10.52;;;6.43;;
56419;SDS011;42323;52.170;7.538;2023-04-24T07:16:42;11.43;;;6.50;;
56419;SDS011;42323;52.170;7.538;2023-04-24T07:19:10;9.27;;;6.10;;
56419;SDS011;42323;52.170;7.538;2023-04-24T07:21:37;9.00;;;5.93;;
56419;SDS011;42323;52.170;7.538;2023-04-24T07:24:04;10.80;;;6.13;;
56419;SDS011;42323;52.170;7.538;2023-04-24T07:26:34;10.85;;;6.32;;
56419;SDS011;42323;52.170;7.538;2023-04-24T07:29:01;9.07;;;5.38;;
56419;SDS011;42323;52.170;7.538;2023-04-24T07:31:27;7.85;;;5.15;;
56419;SDS011;42323;52.170;7.538;2023-04-24T07:33:54;7.40;;;5.25;;
56419;SDS011;42323;52.170;7.538;2023-04-24T07:36:24;7.97;;;5.47;;
56419;SDS011;42323;52.170;7.538;2023-04-24T07:38:52;6.07;;;4.97;;
56419;SDS011;42323;52.170;7.538;2023-04-24T07:41:19;9.95;;;5.03;;
56419;SDS011;42323;52.170;7.538;2023-04-24T07:43:47;7.18;;;4.72;;
56419;SDS011;42323;52.170;7.538;2023-04-24T07:46:14;6.82;;;4.45;;
56419;SDS011;42323;52.170;7.538;2023-04-24T07:48:41;7.40;;;4.43;;
56419;SDS011;42323;52.170;7.538;2023-04-24T07:51:07;7.13;;;5.03;;
56419;SDS011;42323;52.170;7.538;2023-04-24T07:53:36;6.55;;;4.70;;
56419;SDS011;42323;52.170;7.538;2023-04-24T07:56:02;9.48;;;5.00;;
56419;SDS011;42323;52.170;7.538;2023-04-24T07:58:29;6.22;;;4.65;;
56419;SDS011;42323;52.170;7.538;2023-04-24T08:00:55;6.10;;;4.40;;
56419;SDS011;42323;52.170;7.538;2023-04-24T08:03:22;7.03;;;4.68;;
56419;SDS011;42323;52.170;7.538;2023-04-24T08:05:49;6.30;;;5.00;;
56419;SDS011;42323;52.170;7.538;2023-04-24T08:08:17;8.32;;;5.13;;
56419;SDS011;42323;52.170;7.538;2023-04-24T08:10:44;8.07;;;6.03;;
56419;SDS011;42323;52.170;7.538;2023-04-24T08:13:10;10.88;;;6.90;;
56419;SDS011;42323;52.170;7.538;2023-04-24T08:15:37;12.82;;;7.95;;
56419;SDS011;42323;52.170;7.538;2023-04-24T08:18:05;13.25;;;7.10;;
56419;SDS011;42323;52.170;7.538;2023-04-24T08:20:31;10.25;;;7.22;;
56419;SDS011;42323;52.170;7.538;2023-04-24T08:22:58;10.80;;;6.97;;
56419;SDS011;42323;52.170;7.538;2023-04-24T08:25:25;12.73;;;7.88;;
56419;SDS011;42323;52.170;7.538;2023-04-24T08:27:51;9.15;;;6.10;;
56419;SDS011;42323;52.170;7.538;2023-04-24T08:30:18;9.23;;;7.07;;
56419;SDS011;42323;52.170;7.538;2023-04-24T08:32:44;9.27;;;6.55;;
56419;SDS011;42323;52.170;7.538;2023-04-24T08:35:13;8.50;;;5.90;;
56419;SDS011;42323;52.170;7.538;2023-04-24T08:37:39;9.25;;;6.25;;
56419;SDS011;42323;52.170;7.538;2023-04-24T08:40:10;9.20;;;6.30;;
56419;SDS011;42323;52.170;7.538;2023-04-24T08:42:43;8.45;;;5.80;;
56419;SDS011;42323;52.170;7.538;2023-04-24T08:45:11;8.75;;;6.28;;
56419;SDS011;42323;52.170;7.538;2023-04-24T08:47:39;10.07;;;6.88;;
56419;SDS011;42323;52.170;7.538;2023-04-24T08:50:07;9.70;;;6.72;;
56419;SDS011;42323;52.170;7.538;2023-04-24T08:52:35;8.65;;;5.93;;
56419;SDS011;42323;52.170;7.538;2023-04-24T08:55:02;7.97;;;5.82;;
56419;SDS011;42323;52.170;7.538;2023-04-24T08:57:29;9.45;;;6.38;;
56419;SDS011;42323;52.170;7.538;2023-04-24T08:59:57;9.68;;;5.60;;
56419;SDS011;42323;52.170;7.538;2023-04-24T09:02:25;6.00;;;4.53;;
56419;SDS011;42323;52.170;7.538;2023-04-24T09:04:52;5.82;;;4.15;;
56419;SDS011;42323;52.170;7.538;2023-04-24T09:07:19;8.48;;;4.38;;
56419;SDS011;42323;52.170;7.538;2023-04-24T09:09:51;7.85;;;4.10;;
56419;SDS011;42323;52.170;7.538;2023-04-24T09:12:18;7.00;;;4.47;;
56419;SDS011;42323;52.170;7.538;2023-04-24T09:17:14;7.18;;;4.40;;
56419;SDS011;42323;52.170;7.538;2023-04-24T09:19:41;7.63;;;4.53;;
56419;SDS011;42323;52.170;7.538;2023-04-24T09:22:08;6.07;;;3.88;;
56419;SDS011;42323;52.170;7.538;2023-04-24T09:24:39;5.78;;;4.10;;
56419;SDS011;42323;52.170;7.538;2023-04-24T09:27:25;7.57;;;4.35;;
56419;SDS011;42323;52.170;7.538;2023-04-24T09:29:55;6.88;;;4.07;;
56419;SDS011;42323;52.170;7.538;2023-04-24T09:32:23;6.10;;;3.67;;
56419;SDS011;42323;52.170;7.538;2023-04-24T09:37:40;4.78;;;3.70;;
56419;SDS011;42323;52.170;7.538;2023-04-24T09:42:56;6.28;;;3.38;;
56419;SDS011;42323;52.170;7.538;2023-04-24T09:45:28;5.97;;;3.78;;
56419;SDS011;42323;52.170;7.538;2023-04-24T09:48:04;6.65;;;4.05;;
56419;SDS011;42323;52.170;7.538;2023-04-24T09:50:32;6.65;;;3.75;;
56419;SDS011;42323;52.170;7.538;2023-04-24T09:53:04;7.25;;;3.50;;
56419;SDS011;42323;52.170;7.538;2023-04-24T09:55:42;5.20;;;3.40;;
56419;SDS011;42323;52.170;7.538;2023-04-24T09:58:12;5.90;;;3.42;;
56419;SDS011;42323;52.170;7.538;2023-04-24T10:00:41;5.03;;;3.20;;
56419;SDS011;42323;52.170;7.538;2023-04-24T10:03:11;7.78;;;3.20;;
56419;SDS011;42323;52.170;7.538;2023-04-24T10:05:38;4.18;;;2.45;;
56419;SDS011;42323;52.170;7.538;2023-04-24T10:08:10;3.95;;;2.92;;
56419;SDS011;42323;52.170;7.538;2023-04-24T10:10:41;3.00;;;2.30;;
56419;SDS011;42323;52.170;7.538;2023-04-24T10:13:12;4.32;;;2.60;;
56419;SDS011;42323;52.170;7.538;2023-04-24T10:15:44;3.00;;;2.35;;
56419;SDS011;42323;52.170;7.538;2023-04-24T10:18:21;3.05;;;2.40;;
56419;SDS011;42323;52.170;7.538;2023-04-24T10:20:50;5.43;;;2.85;;
56419;SDS011;42323;52.170;7.538;2023-04-24T10:23:21;3.92;;;2.78;;
56419;SDS011;42323;52.170;7.538;2023-04-24T10:25:48;5.25;;;3.03;;
56419;SDS011;42323;52.170;7.538;2023-04-24T10:28:23;6.00;;;3.08;;
56419;SDS011;42323;52.170;7.538;2023-04-24T10:30:50;5.35;;;3.10;;
56419;SDS011;42323;52.170;7.538;2023-04-24T10:33:21;5.97;;;3.25;;
56419;SDS011;42323;52.170;7.538;2023-04-24T10:46:37;7.93;;;4.50;;
56419;SDS011;42323;52.170;7.538;2023-04-24T11:05:11;9.57;;;4.78;;
56419;SDS011;42323;52.170;7.538;2023-04-24T11:11:17;7.00;;;4.35;;
56419;SDS011;42323;52.170;7.538;2023-04-24T11:16:45;8.02;;;5.30;;
56419;SDS011;42323;52.170;7.538;2023-04-24T11:19:27;10.15;;;4.65;;
56419;SDS011;42323;52.170;7.538;2023-04-24T11:22:14;8.80;;;4.45;;
56419;SDS011;42323;52.170;7.538;2023-04-24T11:25:07;7.55;;;4.43;;
56419;SDS011;42323;52.170;7.538;2023-04-24T11:27:39;8.27;;;5.10;;
56419;SDS011;42323;52.170;7.538;2023-04-24T11:30:10;7.50;;;4.68;;
56419;SDS011;42323;52.170;7.538;2023-04-24T11:33:03;9.75;;;4.70;;
56419;SDS011;42323;52.170;7.538;2023-04-24T11:35:34;9.80;;;5.07;;
56419;SDS011;42323;52.170;7.538;2023-04-24T11:38:11;9.45;;;4.57;;
56419;SDS011;42323;52.170;7.538;2023-04-24T11:40:52;8.60;;;5.07;;
56419;SDS011;42323;52.170;7.538;2023-04-24T11:43:25;10.38;;;5.38;;
56419;SDS011;42323;52.170;7.538;2023-04-24T11:45:54;9.45;;;5.25;;
56419;SDS011;42323;52.170;7.538;2023-04-24T11:48:20;9.27;;;5.05;;
56419;SDS011;42323;52.170;7.538;2023-04-24T11:50:48;9.15;;;4.57;;
56419;SDS011;42323;52.170;7.538;2023-04-24T11:53:18;6.38;;;3.60;;
56419;SDS011;42323;52.170;7.538;2023-04-24T11:55:53;7.85;;;3.38;;
56419;SDS011;42323;52.170;7.538;2023-04-24T11:58:20;5.07;;;3.03;;
56419;SDS011;42323;52.170;7.538;2023-04-24T12:00:53;4.50;;;2.90;;
56419;SDS011;42323;52.170;7.538;2023-04-24T12:03:22;6.50;;;2.88;;
56419;SDS011;42323;52.170;7.538;2023-04-24T12:05:49;4.65;;;3.00;;
56419;SDS011;42323;52.170;7.538;2023-04-24T12:08:26;4.03;;;2.67;;
56419;SDS011;42323;52.170;7.538;2023-04-24T12:10:54;3.70;;;2.70;;
56419;SDS011;42323;52.170;7.538;2023-04-24T12:13:21;6.40;;;2.75;;
56419;SDS011;42323;52.170;7.538;2023-04-24T12:15:48;5.15;;;2.97;;
56419;SDS011;42323;52.170;7.538;2023-04-24T12:18:16;6.93;;;2.97;;
56419;SDS011;42323;52.170;7.538;2023-04-24T12:20:43;5.53;;;3.05;;
56419;SDS011;42323;52.170;7.538;2023-04-24T12:23:10;5.80;;;3.08;;
56419;SDS011;42323;52.170;7.538;2023-04-24T12:25:38;6.07;;;2.85;;
56419;SDS011;42323;52.170;7.538;2023-04-24T12:30:32;5.10;;;2.88;;
56419;SDS011;42323;52.170;7.538;2023-04-24T12:33:02;7.10;;;4.03;;
56419;SDS011;42323;52.170;7.538;2023-04-24T12:35:29;4.57;;;2.78;;
56419;SDS011;42323;52.170;7.538;2023-04-24T12:38:44;5.57;;;2.88;;
56419;SDS011;42323;52.170;7.538;2023-04-24T12:41:08;8.05;;;3.33;;
56419;SDS011;42323;52.170;7.538;2023-04-24T12:43:36;10.07;;;4.90;;
56419;SDS011;42323;52.170;7.538;2023-04-24T12:46:03;8.43;;;3.35;;
56419;SDS011;42323;52.170;7.538;2023-04-24T12:48:31;5.30;;;3.20;;
56419;SDS011;42323;52.170;7.538;2023-04-24T12:50:58;5.28;;;2.85;;
56419;SDS011;42323;52.170;7.538;2023-04-24T12:53:27;8.38;;;3.40;;
56419;SDS011;42323;52.170;7.538;2023-04-24T12:55:56;4.60;;;2.95;;
56419;SDS011;42323;52.170;7.538;2023-04-24T12:58:22;4.85;;;3.00;;
56419;SDS011;42323;52.170;7.538;2023-04-24T13:00:49;6.43;;;3.35;;
56419;SDS011;42323;52.170;7.538;2023-04-24T13:03:16;4.03;;;2.80;;
56419;SDS011;42323;52.170;7.538;2023-04-24T13:05:44;9.07;;;3.03;;
56419;SDS011;42323;52.170;7.538;2023-04-24T13:08:10;5.88;;;2.92;;
56419;SDS011;42323;52.170;7.538;2023-04-24T13:10:38;6.55;;;3.10;;
56419;SDS011;42323;52.170;7.538;2023-04-24T13:13:06;7.07;;;2.97;;
56419;SDS011;42323;52.170;7.538;2023-04-24T13:15:33;4.68;;;2.67;;
56419;SDS011;42323;52.170;7.538;2023-04-24T13:18:00;5.13;;;3.47;;
56419;SDS011;42323;52.170;7.538;2023-04-24T13:20:27;8.05;;;3.28;;
56419;SDS011;42323;52.170;7.538;2023-04-24T13:22:54;7.88;;;3.38;;
56419;SDS011;42323;52.170;7.538;2023-04-24T13:25:20;8.07;;;3.67;;
56419;SDS011;42323;52.170;7.538;2023-04-24T13:27:47;6.70;;;3.10;;
56419;SDS011;42323;52.170;7.538;2023-04-24T13:30:13;7.38;;;3.80;;
56419;SDS011;42323;52.170;7.538;2023-04-24T13:32:40;8.52;;;3.60;;
56419;SDS011;42323;52.170;7.538;2023-04-24T13:35:07;6.45;;;2.88;;
56419;SDS011;42323;52.170;7.538;2023-04-24T13:37:34;5.38;;;2.55;;
56419;SDS011;42323;52.170;7.538;2023-04-24T13:40:00;8.52;;;3.67;;
56419;SDS011;42323;52.170;7.538;2023-04-24T13:42:27;5.75;;;3.05;;
56419;SDS011;42323;52.170;7.538;2023-04-24T13:44:53;8.50;;;3.13;;
56419;SDS011;42323;52.170;7.538;2023-04-24T13:47:20;6.20;;;3.50;;
56419;SDS011;42323;52.170;7.538;2023-04-24T13:49:47;9.60;;;4.03;;
56419;SDS011;42323;52.170;7.538;2023-04-24T13:52:13;5.75;;;3.55;;
56419;SDS011;42323;52.170;7.538;2023-04-24T13:54:40;4.43;;;3.30;;
56419;SDS011;42323;52.170;7.538;2023-04-24T13:57:06;5.57;;;3.47;;
56419;SDS011;42323;52.170;7.538;2023-04-24T13:59:33;9.00;;;3.78;;
56419;SDS011;42323;52.170;7.538;2023-04-24T14:01:59;13.35;;;3.83;;
56419;SDS011;42323;52.170;7.538;2023-04-24T14:04:26;3.45;;;2.67;;
56419;SDS011;42323;52.170;7.538;2023-04-24T14:06:53;7.63;;;3.00;;
56419;SDS011;42323;52.170;7.538;2023-04-24T14:09:19;5.47;;;2.95;;
56419;SDS011;42323;52.170;7.538;2023-04-24T14:11:46;5.97;;;2.75;;
56419;SDS011;42323;52.170;7.538;2023-04-24T14:14:13;4.90;;;2.33;;
56419;SDS011;42323;52.170;7.538;2023-04-24T14:16:39;2.63;;;2.33;;
56419;SDS011;42323;52.170;7.538;2023-04-24T14:19:06;2.95;;;2.40;;
56419;SDS011;42323;52.170;7.538;2023-04-24T14:21:33;5.95;;;2.70;;
56419;SDS011;42323;52.170;7.538;2023-04-24T14:23:59;4.20;;;2.67;;
56419;SDS011;42323;52.170;7.538;2023-04-24T14:26:26;2.50;;;2.22;;
56419;SDS011;42323;52.170;7.538;2023-04-24T14:28:53;2.90;;;2.10;;
56419;SDS011;42323;52.170;7.538;2023-04-24T14:31:29;4.43;;;2.38;;
56419;SDS011;42323;52.170;7.538;2023-04-24T14:33:55;2.10;;;1.90;;
56419;SDS011;42323;52.170;7.538;2023-04-24T14:36:22;2.60;;;2.10;;
56419;SDS011;42323;52.170;7.538;2023-04-24T14:38:49;6.35;;;2.10;;
56419;SDS011;42323;52.170;7.538;2023-04-24T14:41:15;2.88;;;2.03;;
56419;SDS011;42323;52.170;7.538;2023-04-24T14:43:42;4.18;;;2.10;;
56419;SDS011;42323;52.170;7.538;2023-04-24T14:46:09;3.15;;;2.00;;
56419;SDS011;42323;52.170;7.538;2023-04-24T14:48:35;2.40;;;2.10;;
56419;SDS011;42323;52.170;7.538;2023-04-24T14:51:02;3.00;;;1.83;;
56419;SDS011;42323;52.170;7.538;2023-04-24T14:53:28;2.53;;;1.73;;
56419;SDS011;42323;52.170;7.538;2023-04-24T14:55:55;1.65;;;1.50;;
56419;SDS011;42323;52.170;7.538;2023-04-24T14:58:22;4.65;;;1.80;;
56419;SDS011;42323;52.170;7.538;2023-04-24T15:00:48;3.92;;;1.70;;
56419;SDS011;42323;52.170;7.538;2023-04-24T15:03:20;1.83;;;1.55;;
56419;SDS011;42323;52.170;7.538;2023-04-24T15:05:48;2.35;;;1.80;;
56419;SDS011;42323;52.170;7.538;2023-04-24T15:08:14;2.45;;;1.95;;
56419;SDS011;42323;52.170;7.538;2023-04-24T15:10:41;2.17;;;1.85;;
56419;SDS011;42323;52.170;7.538;2023-04-24T15:13:08;4.68;;;1.85;;
56419;SDS011;42323;52.170;7.538;2023-04-24T15:15:34;2.53;;;1.50;;
56419;SDS011;42323;52.170;7.538;2023-04-24T15:18:01;2.20;;;1.55;;
56419;SDS011;42323;52.170;7.538;2023-04-24T15:20:27;2.05;;;1.55;;
56419;SDS011;42323;52.170;7.538;2023-04-24T15:22:54;1.83;;;1.50;;
56419;SDS011;42323;52.170;7.538;2023-04-24T15:25:21;3.05;;;1.60;;
56419;SDS011;42323;52.170;7.538;2023-04-24T15:27:47;3.28;;;1.67;;
56419;SDS011;42323;52.170;7.538;2023-04-24T15:30:14;3.00;;;1.63;;
56419;SDS011;42323;52.170;7.538;2023-04-24T15:32:40;3.67;;;1.67;;